Narrabri West, New South Wales

7:24 PM EST on September 02, 2014 (GMT +1000)
Moree | Change Station
CLOSE
Current Station
Airport
Location: Moree Airport, NSW,
Elevation: 699 ft
Nearby Weather Stations

Elev 699 ft 29.50 °S, 149.85 °E | Updated 24 minutes ago

Clear
Clear
55 °F
Feels Like 55 °F
N
14
Wind Variable Wind from WSW

Today
High -- | Low -- °F
--% Chance of Precip.
Yesterday
High -- | Low -- °F
Precip. -- in
6:16 AM 5:46 PM
Waxing Crescent, 49% visible
Pressure 29.98 in
Visibility 6.2 miles
Clouds
Dew Point 28 °F
Humidity 36%
Rainfall 0.00 in
Snow Depth Not available.
UV Not available.
Pollen Not available.
Air Quality Not available.
Flu Activity Not available.
METAR YMOR 020900Z AUTO 25012KT 9999 // NCD 13/M02 Q1015

More Conditions Fewer Conditions

Pressure 29.98 in
Visibility 6.2 miles
Clouds
Dew Point 28 °F
Humidity 36%
Rainfall 0.00 in
Snow Depth Not available.
UV Not available.
Pollen Not available.
Air Quality Not available.
Flu Activity Not available.
METAR YMOR 020900Z AUTO 25012KT 9999 // NCD 13/M02 Q1015

More Conditions Fewer Conditions

10-Day Weather Forecast

Almanac

Astronomy

Sep. 02, 2014 Rise Set
Actual Time 6:16 AM EST 5:46 PM EST
Civil Twilight 5:51 AM EST 6:10 PM EST
Nautical Twilight 5:24 AM EST 6:38 PM EST
Astronomical Twilight 4:56 AM EST 7:05 PM EST
Moon 10:46 AM EST No Moon Set
Length of Visible Light 12h 18m
Length of Day
11h 29m
Tomorrow will be 1m 44s longer.
Waxing Crescent, 49% of the Moon is Illuminated
Today
Waxing Crescent
Sep 2
First Quarter
Sep 8
Full
Sep 15
Last Quarter
Sep 24
New

Yesterday's Extremes

Country Highs Country Lows

Community

WunderPhotos

Upload Photos

1,749,587 photos uploaded!

WunderBlogs® & News

Nearby

Snow Depth

Not available.

Earthquake Activity

City Distance Mag. Time & Date
No recent earthquake activity has been reported nearby.
Minimum magnitude displayed is 2.5.

Coastal Water Temperatures

Place Temperature
No Stations Reporting

Nearby Weather Stations